sensor_id;sensor_type;location;lat;lon;timestamp;temperature;humidity
18593;DHT22;9426;54.118;17.948;2022-09-09T00:04:34;13.90;99.90
18593;DHT22;9426;54.118;17.948;2022-09-09T00:10:04;13.80;99.90
18593;DHT22;9426;54.118;17.948;2022-09-09T00:15:37;13.80;99.90
18593;DHT22;9426;54.118;17.948;2022-09-09T00:21:06;13.90;99.90
18593;DHT22;9426;54.118;17.948;2022-09-09T00:26:35;13.90;99.90
18593;DHT22;9426;54.118;17.948;2022-09-09T00:32:08;13.90;99.90
18593;DHT22;9426;54.118;17.948;2022-09-09T00:37:34;13.70;99.90
18593;DHT22;9426;54.118;17.948;2022-09-09T00:43:18;13.60;99.90
18593;DHT22;9426;54.118;17.948;2022-09-09T00:48:50;13.60;99.90
18593;DHT22;9426;54.118;17.948;2022-09-09T00:54:37;13.50;99.90
18593;DHT22;9426;54.118;17.948;2022-09-09T01:00:20;13.50;99.90
18593;DHT22;9426;54.118;17.948;2022-09-09T01:05:47;13.40;99.90
18593;DHT22;9426;54.118;17.948;2022-09-09T01:11:17;13.40;99.90
18593;DHT22;9426;54.118;17.948;2022-09-09T01:16:45;13.40;99.90
18593;DHT22;9426;54.118;17.948;2022-09-09T01:22:16;13.40;99.90
18593;DHT22;9426;54.118;17.948;2022-09-09T01:27:45;13.30;99.90
18593;DHT22;9426;54.118;17.948;2022-09-09T01:33:13;13.20;99.90
18593;DHT22;9426;54.118;17.948;2022-09-09T01:38:38;13.00;99.90
18593;DHT22;9426;54.118;17.948;2022-09-09T01:44:05;12.80;99.90
18593;DHT22;9426;54.118;17.948;2022-09-09T01:49:31;12.50;99.90
18593;DHT22;9426;54.118;17.948;2022-09-09T01:55:02;12.20;99.90
18593;DHT22;9426;54.118;17.948;2022-09-09T02:00:34;12.00;99.90
18593;DHT22;9426;54.118;17.948;2022-09-09T02:06:08;11.80;99.90
18593;DHT22;9426;54.118;17.948;2022-09-09T02:11:36;11.70;99.90
18593;DHT22;9426;54.118;17.948;2022-09-09T02:17:10;11.60;99.90
18593;DHT22;9426;54.118;17.948;2022-09-09T02:22:51;11.50;99.90
18593;DHT22;9426;54.118;17.948;2022-09-09T02:28:18;11.50;99.90
18593;DHT22;9426;54.118;17.948;2022-09-09T02:33:47;11.50;99.90
18593;DHT22;9426;54.118;17.948;2022-09-09T02:39:13;11.50;99.90
18593;DHT22;9426;54.118;17.948;2022-09-09T02:44:36;11.50;99.90
18593;DHT22;9426;54.118;17.948;2022-09-09T02:50:13;11.50;99.90
18593;DHT22;9426;54.118;17.948;2022-09-09T02:55:39;11.40;99.90
18593;DHT22;9426;54.118;17.948;2022-09-09T03:01:06;11.40;99.90
18593;DHT22;9426;54.118;17.948;2022-09-09T03:06:32;11.30;99.90
18593;DHT22;9426;54.118;17.948;2022-09-09T03:12:06;11.30;99.90
18593;DHT22;9426;54.118;17.948;2022-09-09T03:17:29;11.30;99.90
18593;DHT22;9426;54.118;17.948;2022-09-09T03:22:54;11.20;99.90
18593;DHT22;9426;54.118;17.948;2022-09-09T03:28:18;11.20;99.90
18593;DHT22;9426;54.118;17.948;2022-09-09T03:33:43;11.10;99.90
18593;DHT22;9426;54.118;17.948;2022-09-09T03:39:10;11.10;99.90
18593;DHT22;9426;54.118;17.948;2022-09-09T03:44:36;11.00;99.90
18593;DHT22;9426;54.118;17.948;2022-09-09T03:50:00;11.00;99.90
18593;DHT22;9426;54.118;17.948;2022-09-09T03:55:25;11.00;99.90
18593;DHT22;9426;54.118;17.948;2022-09-09T04:00:54;11.00;99.90
18593;DHT22;9426;54.118;17.948;2022-09-09T04:06:17;11.00;99.90
18593;DHT22;9426;54.118;17.948;2022-09-09T04:11:43;11.00;99.90
18593;DHT22;9426;54.118;17.948;2022-09-09T04:17:08;11.00;99.90
18593;DHT22;9426;54.118;17.948;2022-09-09T04:22:32;11.00;99.90
18593;DHT22;9426;54.118;17.948;2022-09-09T04:27:57;11.00;99.90
18593;DHT22;9426;54.118;17.948;2022-09-09T04:33:23;11.00;99.90
18593;DHT22;9426;54.118;17.948;2022-09-09T04:38:48;11.00;99.90
18593;DHT22;9426;54.118;17.948;2022-09-09T04:44:13;11.00;99.90
18593;DHT22;9426;54.118;17.948;2022-09-09T04:49:38;11.00;99.90
18593;DHT22;9426;54.118;17.948;2022-09-09T04:55:02;11.00;99.90
18593;DHT22;9426;54.118;17.948;2022-09-09T05:00:27;11.00;99.90
18593;DHT22;9426;54.118;17.948;2022-09-09T05:05:50;11.10;99.90
18593;DHT22;9426;54.118;17.948;2022-09-09T05:11:19;11.10;99.90
18593;DHT22;9426;54.118;17.948;2022-09-09T05:16:46;11.20;99.90
18593;DHT22;9426;54.118;17.948;2022-09-09T05:22:10;11.20;99.90
18593;DHT22;9426;54.118;17.948;2022-09-09T05:27:38;11.20;99.90
18593;DHT22;9426;54.118;17.948;2022-09-09T05:33:03;11.20;99.90
18593;DHT22;9426;54.118;17.948;2022-09-09T05:38:28;11.20;99.90
18593;DHT22;9426;54.118;17.948;2022-09-09T05:43:51;11.20;99.90
18593;DHT22;9426;54.118;17.948;2022-09-09T05:49:17;11.20;99.90
18593;DHT22;9426;54.118;17.948;2022-09-09T05:54:42;11.20;99.90
18593;DHT22;9426;54.118;17.948;2022-09-09T06:00:06;11.20;99.90
18593;DHT22;9426;54.118;17.948;2022-09-09T06:05:35;11.30;99.90
18593;DHT22;9426;54.118;17.948;2022-09-09T06:11:01;11.30;99.90
18593;DHT22;9426;54.118;17.948;2022-09-09T06:16:27;11.30;99.90
18593;DHT22;9426;54.118;17.948;2022-09-09T06:21:52;11.40;99.90
18593;DHT22;9426;54.118;17.948;2022-09-09T06:27:16;11.50;99.90
18593;DHT22;9426;54.118;17.948;2022-09-09T06:32:40;11.50;99.90
18593;DHT22;9426;54.118;17.948;2022-09-09T06:38:06;11.70;99.90
18593;DHT22;9426;54.118;17.948;2022-09-09T06:43:30;11.80;99.90
18593;DHT22;9426;54.118;17.948;2022-09-09T06:48:55;11.90;99.90
18593;DHT22;9426;54.118;17.948;2022-09-09T06:54:24;12.00;99.90
18593;DHT22;9426;54.118;17.948;2022-09-09T06:59:48;12.10;99.90
18593;DHT22;9426;54.118;17.948;2022-09-09T07:05:12;12.10;99.90
18593;DHT22;9426;54.118;17.948;2022-09-09T07:10:39;12.20;99.90
18593;DHT22;9426;54.118;17.948;2022-09-09T07:16:04;12.20;99.90
18593;DHT22;9426;54.118;17.948;2022-09-09T07:21:30;12.30;99.90
18593;DHT22;9426;54.118;17.948;2022-09-09T07:26:55;12.30;99.90
18593;DHT22;9426;54.118;17.948;2022-09-09T07:32:18;12.30;99.90
18593;DHT22;9426;54.118;17.948;2022-09-09T07:37:42;12.30;99.90
18593;DHT22;9426;54.118;17.948;2022-09-09T07:43:11;12.20;99.90
18593;DHT22;9426;54.118;17.948;2022-09-09T07:48:37;12.20;99.90
18593;DHT22;9426;54.118;17.948;2022-09-09T07:54:03;12.20;99.90
18593;DHT22;9426;54.118;17.948;2022-09-09T07:59:30;12.20;99.90
18593;DHT22;9426;54.118;17.948;2022-09-09T08:04:53;12.30;99.90
18593;DHT22;9426;54.118;17.948;2022-09-09T08:10:17;12.40;99.90
18593;DHT22;9426;54.118;17.948;2022-09-09T08:15:44;12.40;99.90
18593;DHT22;9426;54.118;17.948;2022-09-09T08:21:10;12.40;99.90
18593;DHT22;9426;54.118;17.948;2022-09-09T08:26:37;12.40;99.90
18593;DHT22;9426;54.118;17.948;2022-09-09T08:32:02;12.40;99.90
18593;DHT22;9426;54.118;17.948;2022-09-09T08:37:27;12.30;99.90
18593;DHT22;9426;54.118;17.948;2022-09-09T08:42:53;12.40;99.90
18593;DHT22;9426;54.118;17.948;2022-09-09T08:48:35;12.60;99.90
18593;DHT22;9426;54.118;17.948;2022-09-09T08:54:03;12.80;99.90
18593;DHT22;9426;54.118;17.948;2022-09-09T08:59:28;12.80;99.90
18593;DHT22;9426;54.118;17.948;2022-09-09T09:05:06;12.90;99.90
18593;DHT22;9426;54.118;17.948;2022-09-09T09:10:42;12.90;99.90
18593;DHT22;9426;54.118;17.948;2022-09-09T09:16:20;13.10;99.90
18593;DHT22;9426;54.118;17.948;2022-09-09T09:21:53;13.20;99.90
18593;DHT22;9426;54.118;17.948;2022-09-09T09:27:26;13.40;99.90
18593;DHT22;9426;54.118;17.948;2022-09-09T09:32:58;13.60;99.90
18593;DHT22;9426;54.118;17.948;2022-09-09T09:38:27;13.60;99.90
18593;DHT22;9426;54.118;17.948;2022-09-09T09:44:23;13.90;99.90
18593;DHT22;9426;54.118;17.948;2022-09-09T09:49:53;13.80;99.90
18593;DHT22;9426;54.118;17.948;2022-09-09T09:55:19;13.80;99.90
18593;DHT22;9426;54.118;17.948;2022-09-09T10:00:48;13.70;99.90
18593;DHT22;9426;54.118;17.948;2022-09-09T10:06:15;13.60;99.90
18593;DHT22;9426;54.118;17.948;2022-09-09T10:11:45;13.60;99.90
18593;DHT22;9426;54.118;17.948;2022-09-09T10:17:20;13.60;99.90
18593;DHT22;9426;54.118;17.948;2022-09-09T10:22:51;13.70;99.90
18593;DHT22;9426;54.118;17.948;2022-09-09T10:28:33;13.70;99.90
18593;DHT22;9426;54.118;17.948;2022-09-09T10:34:03;13.60;99.90
18593;DHT22;9426;54.118;17.948;2022-09-09T10:39:35;13.60;99.90
18593;DHT22;9426;54.118;17.948;2022-09-09T10:45:10;13.80;99.90
18593;DHT22;9426;54.118;17.948;2022-09-09T10:50:55;13.80;99.90
18593;DHT22;9426;54.118;17.948;2022-09-09T10:56:25;13.80;99.90
18593;DHT22;9426;54.118;17.948;2022-09-09T11:01:55;13.80;99.90
18593;DHT22;9426;54.118;17.948;2022-09-09T11:07:27;13.80;99.90
18593;DHT22;9426;54.118;17.948;2022-09-09T11:12:54;14.00;99.90
18593;DHT22;9426;54.118;17.948;2022-09-09T11:18:22;14.00;99.90
18593;DHT22;9426;54.118;17.948;2022-09-09T11:23:49;14.00;99.90
18593;DHT22;9426;54.118;17.948;2022-09-09T11:29:36;13.90;99.90
18593;DHT22;9426;54.118;17.948;2022-09-09T11:35:20;13.90;99.90
18593;DHT22;9426;54.118;17.948;2022-09-09T11:40:46;13.90;99.90
18593;DHT22;9426;54.118;17.948;2022-09-09T11:46:10;13.90;99.90
18593;DHT22;9426;54.118;17.948;2022-09-09T11:51:37;13.90;99.90
18593;DHT22;9426;54.118;17.948;2022-09-09T11:57:02;13.90;99.90
18593;DHT22;9426;54.118;17.948;2022-09-09T12:02:28;14.00;99.90
18593;DHT22;9426;54.118;17.948;2022-09-09T12:07:56;14.10;99.90
18593;DHT22;9426;54.118;17.948;2022-09-09T12:13:22;14.10;99.90
18593;DHT22;9426;54.118;17.948;2022-09-09T12:18:46;14.20;99.90
18593;DHT22;9426;54.118;17.948;2022-09-09T12:24:13;14.20;99.90
18593;DHT22;9426;54.118;17.948;2022-09-09T12:29:46;14.10;99.90
18593;DHT22;9426;54.118;17.948;2022-09-09T12:35:19;14.20;99.90
18593;DHT22;9426;54.118;17.948;2022-09-09T12:40:55;14.30;99.90
18593;DHT22;9426;54.118;17.948;2022-09-09T12:46:26;14.40;99.90
18593;DHT22;9426;54.118;17.948;2022-09-09T12:51:51;14.30;99.90
18593;DHT22;9426;54.118;17.948;2022-09-09T12:57:16;14.30;99.90
18593;DHT22;9426;54.118;17.948;2022-09-09T13:02:48;14.10;99.90
18593;DHT22;9426;54.118;17.948;2022-09-09T13:08:14;14.00;99.90
18593;DHT22;9426;54.118;17.948;2022-09-09T13:13:40;13.80;99.90
18593;DHT22;9426;54.118;17.948;2022-09-09T13:19:08;13.90;99.90
18593;DHT22;9426;54.118;17.948;2022-09-09T13:24:33;13.90;99.90
18593;DHT22;9426;54.118;17.948;2022-09-09T13:29:58;14.00;99.90
18593;DHT22;9426;54.118;17.948;2022-09-09T13:35:23;14.10;99.90
18593;DHT22;9426;54.118;17.948;2022-09-09T13:40:54;14.20;99.90
18593;DHT22;9426;54.118;17.948;2022-09-09T13:46:31;14.30;99.90
18593;DHT22;9426;54.118;17.948;2022-09-09T13:52:04;14.30;99.90
18593;DHT22;9426;54.118;17.948;2022-09-09T13:57:27;14.30;99.90
18593;DHT22;9426;54.118;17.948;2022-09-09T14:02:52;14.30;99.90
18593;DHT22;9426;54.118;17.948;2022-09-09T14:08:24;14.10;99.90
18593;DHT22;9426;54.118;17.948;2022-09-09T14:13:48;14.00;99.90
18593;DHT22;9426;54.118;17.948;2022-09-09T14:19:14;14.00;99.90
18593;DHT22;9426;54.118;17.948;2022-09-09T14:24:38;14.00;99.90
18593;DHT22;9426;54.118;17.948;2022-09-09T14:30:03;14.30;99.90
18593;DHT22;9426;54.118;17.948;2022-09-09T14:35:28;14.50;99.90
18593;DHT22;9426;54.118;17.948;2022-09-09T14:40:51;15.00;99.90
18593;DHT22;9426;54.118;17.948;2022-09-09T14:46:16;17.10;99.90
18593;DHT22;9426;54.118;17.948;2022-09-09T14:51:41;19.20;99.90
18593;DHT22;9426;54.118;17.948;2022-09-09T14:57:04;20.60;99.90
18593;DHT22;9426;54.118;17.948;2022-09-09T15:02:27;20.80;99.90
18593;DHT22;9426;54.118;17.948;2022-09-09T15:07:53;20.60;99.90
18593;DHT22;9426;54.118;17.948;2022-09-09T15:13:16;20.30;99.90
18593;DHT22;9426;54.118;17.948;2022-09-09T15:18:41;21.20;99.90
18593;DHT22;9426;54.118;17.948;2022-09-09T15:24:08;22.10;99.90
18593;DHT22;9426;54.118;17.948;2022-09-09T15:29:33;21.90;99.90
18593;DHT22;9426;54.118;17.948;2022-09-09T15:34:58;20.80;99.90
18593;DHT22;9426;54.118;17.948;2022-09-09T15:40:24;20.00;99.90
18593;DHT22;9426;54.118;17.948;2022-09-09T15:45:53;18.80;99.90
18593;DHT22;9426;54.118;17.948;2022-09-09T15:51:18;18.40;99.90
18593;DHT22;9426;54.118;17.948;2022-09-09T15:57:01;17.60;99.90
18593;DHT22;9426;54.118;17.948;2022-09-09T16:02:24;16.40;99.90
18593;DHT22;9426;54.118;17.948;2022-09-09T16:07:48;15.60;99.90
18593;DHT22;9426;54.118;17.948;2022-09-09T16:13:12;15.10;99.90
18593;DHT22;9426;54.118;17.948;2022-09-09T16:18:36;14.80;99.90
18593;DHT22;9426;54.118;17.948;2022-09-09T16:24:01;14.50;99.90
18593;DHT22;9426;54.118;17.948;2022-09-09T16:29:27;14.30;99.90
18593;DHT22;9426;54.118;17.948;2022-09-09T16:34:50;14.20;99.90
18593;DHT22;9426;54.118;17.948;2022-09-09T16:40:14;14.20;99.90
18593;DHT22;9426;54.118;17.948;2022-09-09T16:45:43;14.00;99.90
18593;DHT22;9426;54.118;17.948;2022-09-09T16:51:11;14.00;99.90
18593;DHT22;9426;54.118;17.948;2022-09-09T16:56:37;14.00;99.90
18593;DHT22;9426;54.118;17.948;2022-09-09T17:02:04;13.90;99.90
18593;DHT22;9426;54.118;17.948;2022-09-09T17:07:27;13.90;99.90
18593;DHT22;9426;54.118;17.948;2022-09-09T17:12:51;13.80;99.90
18593;DHT22;9426;54.118;17.948;2022-09-09T17:18:15;13.70;99.90
18593;DHT22;9426;54.118;17.948;2022-09-09T17:23:39;13.70;99.90
18593;DHT22;9426;54.118;17.948;2022-09-09T17:29:03;13.60;99.90
18593;DHT22;9426;54.118;17.948;2022-09-09T17:34:28;13.60;99.90
18593;DHT22;9426;54.118;17.948;2022-09-09T17:39:51;13.60;99.90
18593;DHT22;9426;54.118;17.948;2022-09-09T17:45:15;13.50;99.90
18593;DHT22;9426;54.118;17.948;2022-09-09T17:50:39;13.60;99.90
18593;DHT22;9426;54.118;17.948;2022-09-09T17:56:05;13.50;99.90
18593;DHT22;9426;54.118;17.948;2022-09-09T18:01:31;13.50;99.90
18593;DHT22;9426;54.118;17.948;2022-09-09T18:06:57;13.50;99.90
18593;DHT22;9426;54.118;17.948;2022-09-09T18:12:20;13.50;99.90
18593;DHT22;9426;54.118;17.948;2022-09-09T18:17:44;13.50;99.90
18593;DHT22;9426;54.118;17.948;2022-09-09T18:23:09;13.50;99.90
18593;DHT22;9426;54.118;17.948;2022-09-09T18:28:32;13.50;99.90
18593;DHT22;9426;54.118;17.948;2022-09-09T18:33:58;13.50;99.90
18593;DHT22;9426;54.118;17.948;2022-09-09T18:39:24;13.50;99.90
18593;DHT22;9426;54.118;17.948;2022-09-09T18:44:48;13.50;99.90
18593;DHT22;9426;54.118;17.948;2022-09-09T18:50:12;13.50;99.90
18593;DHT22;9426;54.118;17.948;2022-09-09T18:55:37;13.50;99.90
18593;DHT22;9426;54.118;17.948;2022-09-09T19:01:01;13.50;99.90
18593;DHT22;9426;54.118;17.948;2022-09-09T19:06:26;13.50;99.90
18593;DHT22;9426;54.118;17.948;2022-09-09T19:11:52;13.50;99.90
18593;DHT22;9426;54.118;17.948;2022-09-09T19:17:16;13.50;99.90
18593;DHT22;9426;54.118;17.948;2022-09-09T19:22:39;13.50;99.90
18593;DHT22;9426;54.118;17.948;2022-09-09T19:28:04;13.50;99.90
18593;DHT22;9426;54.118;17.948;2022-09-09T19:33:28;13.50;99.90
18593;DHT22;9426;54.118;17.948;2022-09-09T19:38:52;13.50;99.90
18593;DHT22;9426;54.118;17.948;2022-09-09T19:44:17;13.50;99.90
18593;DHT22;9426;54.118;17.948;2022-09-09T19:49:40;13.50;99.90
18593;DHT22;9426;54.118;17.948;2022-09-09T19:55:07;13.50;99.90
18593;DHT22;9426;54.118;17.948;2022-09-09T20:00:33;13.50;99.90
18593;DHT22;9426;54.118;17.948;2022-09-09T20:05:59;13.50;99.90
18593;DHT22;9426;54.118;17.948;2022-09-09T20:11:23;13.50;99.90
18593;DHT22;9426;54.118;17.948;2022-09-09T20:16:48;13.50;99.90
18593;DHT22;9426;54.118;17.948;2022-09-09T20:22:11;13.40;99.90
18593;DHT22;9426;54.118;17.948;2022-09-09T20:27:35;13.40;99.90
18593;DHT22;9426;54.118;17.948;2022-09-09T20:33:00;13.40;99.90
18593;DHT22;9426;54.118;17.948;2022-09-09T20:38:24;13.30;99.90
18593;DHT22;9426;54.118;17.948;2022-09-09T20:43:50;13.30;99.90
18593;DHT22;9426;54.118;17.948;2022-09-09T20:49:17;13.30;99.90
18593;DHT22;9426;54.118;17.948;2022-09-09T20:54:40;13.30;99.90
18593;DHT22;9426;54.118;17.948;2022-09-09T21:00:04;13.30;99.90
18593;DHT22;9426;54.118;17.948;2022-09-09T21:05:30;13.30;99.90
18593;DHT22;9426;54.118;17.948;2022-09-09T21:10:54;13.30;99.90
18593;DHT22;9426;54.118;17.948;2022-09-09T21:16:17;13.30;99.90
18593;DHT22;9426;54.118;17.948;2022-09-09T21:21:43;13.20;99.90
18593;DHT22;9426;54.118;17.948;2022-09-09T21:27:08;13.20;99.90
18593;DHT22;9426;54.118;17.948;2022-09-09T21:32:31;13.20;99.90
18593;DHT22;9426;54.118;17.948;2022-09-09T21:37:56;13.20;99.90
18593;DHT22;9426;54.118;17.948;2022-09-09T21:43:20;13.20;99.90
18593;DHT22;9426;54.118;17.948;2022-09-09T21:48:44;13.20;99.90
18593;DHT22;9426;54.118;17.948;2022-09-09T21:54:08;13.20;99.90
18593;DHT22;9426;54.118;17.948;2022-09-09T21:59:32;13.10;99.90
18593;DHT22;9426;54.118;17.948;2022-09-09T22:04:55;13.00;99.90
18593;DHT22;9426;54.118;17.948;2022-09-09T22:10:20;13.00;99.90
18593;DHT22;9426;54.118;17.948;2022-09-09T22:15:45;13.00;99.90
18593;DHT22;9426;54.118;17.948;2022-09-09T22:21:10;13.00;99.90
18593;DHT22;9426;54.118;17.948;2022-09-09T22:26:36;13.10;99.90
18593;DHT22;9426;54.118;17.948;2022-09-09T22:32:00;13.10;99.90
18593;DHT22;9426;54.118;17.948;2022-09-09T22:37:24;13.00;99.90
18593;DHT22;9426;54.118;17.948;2022-09-09T22:42:48;13.00;99.90
18593;DHT22;9426;54.118;17.948;2022-09-09T22:48:13;12.90;99.90
18593;DHT22;9426;54.118;17.948;2022-09-09T22:53:38;12.90;99.90
18593;DHT22;9426;54.118;17.948;2022-09-09T22:59:03;12.90;99.90
18593;DHT22;9426;54.118;17.948;2022-09-09T23:04:27;12.90;99.90
18593;DHT22;9426;54.118;17.948;2022-09-09T23:10:09;12.80;99.90
18593;DHT22;9426;54.118;17.948;2022-09-09T23:15:52;12.80;99.90
18593;DHT22;9426;54.118;17.948;2022-09-09T23:21:36;12.80;99.90
18593;DHT22;9426;54.118;17.948;2022-09-09T23:27:18;12.80;99.90
18593;DHT22;9426;54.118;17.948;2022-09-09T23:33:03;12.80;99.90
18593;DHT22;9426;54.118;17.948;2022-09-09T23:38:45;12.70;99.90
18593;DHT22;9426;54.118;17.948;2022-09-09T23:44:08;12.70;99.90
18593;DHT22;9426;54.118;17.948;2022-09-09T23:49:35;12.70;99.90
18593;DHT22;9426;54.118;17.948;2022-09-09T23:55:00;12.80;99.90
